sensor_id;sensor_type;location;lat;lon;timestamp;pressure;altitude;pressure_sealevel;temperature;humidity
48364;BME280;34170;54.364;18.582;2024-02-21T00:01:37;100469.25;;;8.31;100.00
48364;BME280;34170;54.364;18.582;2024-02-21T00:04:04;100477.03;;;8.34;100.00
48364;BME280;34170;54.364;18.582;2024-02-21T00:06:33;100468.88;;;8.36;100.00
48364;BME280;34170;54.364;18.582;2024-02-21T00:09:00;100470.09;;;8.43;100.00
48364;BME280;34170;54.364;18.582;2024-02-21T00:11:28;100453.38;;;8.39;100.00
48364;BME280;34170;54.364;18.582;2024-02-21T00:13:55;100459.13;;;8.46;100.00
48364;BME280;34170;54.364;18.582;2024-02-21T00:16:23;100459.13;;;8.35;99.91
48364;BME280;34170;54.364;18.582;2024-02-21T00:18:51;100450.88;;;8.15;100.00
48364;BME280;34170;54.364;18.582;2024-02-21T00:21:19;100456.53;;;8.12;100.00
48364;BME280;34170;54.364;18.582;2024-02-21T00:23:46;100447.28;;;8.05;100.00
48364;BME280;34170;54.364;18.582;2024-02-21T00:26:14;100459.19;;;8.01;100.00
48364;BME280;34170;54.364;18.582;2024-02-21T00:28:42;100448.44;;;8.24;100.00
48364;BME280;34170;54.364;18.582;2024-02-21T00:31:10;100453.31;;;8.18;100.00
48364;BME280;34170;54.364;18.582;2024-02-21T00:33:38;100453.13;;;8.10;100.00
48364;BME280;34170;54.364;18.582;2024-02-21T00:36:06;100453.75;;;8.35;100.00
48364;BME280;34170;54.364;18.582;2024-02-21T00:38:33;100436.38;;;8.29;100.00
48364;BME280;34170;54.364;18.582;2024-02-21T00:41:01;100441.66;;;8.19;100.00
48364;BME280;34170;54.364;18.582;2024-02-21T00:43:28;100443.59;;;8.17;100.00
48364;BME280;34170;54.364;18.582;2024-02-21T00:45:57;100437.91;;;8.11;100.00
48364;BME280;34170;54.364;18.582;2024-02-21T00:48:24;100430.22;;;8.17;100.00
48364;BME280;34170;54.364;18.582;2024-02-21T00:50:52;100437.72;;;8.24;100.00
48364;BME280;34170;54.364;18.582;2024-02-21T00:53:19;100433.91;;;8.37;100.00
48364;BME280;34170;54.364;18.582;2024-02-21T00:55:47;100435.47;;;8.40;100.00
48364;BME280;34170;54.364;18.582;2024-02-21T00:58:15;100431.13;;;8.39;100.00
48364;BME280;34170;54.364;18.582;2024-02-21T01:00:42;100422.19;;;8.38;100.00
48364;BME280;34170;54.364;18.582;2024-02-21T01:03:10;100409.19;;;8.45;100.00
48364;BME280;34170;54.364;18.582;2024-02-21T01:05:38;100421.72;;;8.45;100.00
48364;BME280;34170;54.364;18.582;2024-02-21T01:08:05;100406.78;;;8.31;100.00
48364;BME280;34170;54.364;18.582;2024-02-21T01:10:33;100414.09;;;8.29;100.00
48364;BME280;34170;54.364;18.582;2024-02-21T01:13:01;100413.81;;;8.43;100.00
48364;BME280;34170;54.364;18.582;2024-02-21T01:15:28;100400.69;;;8.29;100.00
48364;BME280;34170;54.364;18.582;2024-02-21T01:17:56;100409.91;;;8.47;100.00
48364;BME280;34170;54.364;18.582;2024-02-21T01:20:24;100395.81;;;8.34;100.00
48364;BME280;34170;54.364;18.582;2024-02-21T01:22:52;100399.47;;;8.44;100.00
48364;BME280;34170;54.364;18.582;2024-02-21T01:25:20;100404.03;;;8.53;100.00
48364;BME280;34170;54.364;18.582;2024-02-21T01:27:47;100400.22;;;8.56;100.00
48364;BME280;34170;54.364;18.582;2024-02-21T01:30:15;100398.47;;;8.45;100.00
48364;BME280;34170;54.364;18.582;2024-02-21T01:32:42;100401.75;;;8.37;100.00
48364;BME280;34170;54.364;18.582;2024-02-21T01:35:10;100394.88;;;8.56;100.00
48364;BME280;34170;54.364;18.582;2024-02-21T01:37:37;100396.00;;;8.53;100.00
48364;BME280;34170;54.364;18.582;2024-02-21T01:40:06;100386.38;;;8.51;100.00
48364;BME280;34170;54.364;18.582;2024-02-21T01:42:38;100391.75;;;8.39;100.00
48364;BME280;34170;54.364;18.582;2024-02-21T01:45:06;100379.16;;;8.19;100.00
48364;BME280;34170;54.364;18.582;2024-02-21T01:47:35;100386.78;;;8.35;100.00
48364;BME280;34170;54.364;18.582;2024-02-21T01:50:04;100393.81;;;8.47;100.00
48364;BME280;34170;54.364;18.582;2024-02-21T01:52:33;100387.84;;;8.55;100.00
48364;BME280;34170;54.364;18.582;2024-02-21T01:55:04;100392.13;;;8.46;100.00
48364;BME280;34170;54.364;18.582;2024-02-21T01:57:32;100382.66;;;8.63;100.00
48364;BME280;34170;54.364;18.582;2024-02-21T02:00:00;100383.69;;;8.72;100.00
48364;BME280;34170;54.364;18.582;2024-02-21T02:02:37;100373.81;;;8.72;100.00
48364;BME280;34170;54.364;18.582;2024-02-21T02:05:07;100365.25;;;8.57;100.00
48364;BME280;34170;54.364;18.582;2024-02-21T02:07:35;100371.94;;;8.63;100.00
48364;BME280;34170;54.364;18.582;2024-02-21T02:10:03;100371.59;;;8.56;100.00
48364;BME280;34170;54.364;18.582;2024-02-21T02:12:31;100366.31;;;8.66;100.00
48364;BME280;34170;54.364;18.582;2024-02-21T02:15:03;100372.06;;;8.62;100.00
48364;BME280;34170;54.364;18.582;2024-02-21T02:17:32;100350.25;;;8.34;100.00
48364;BME280;34170;54.364;18.582;2024-02-21T02:20:00;100346.81;;;8.43;100.00
48364;BME280;34170;54.364;18.582;2024-02-21T02:22:32;100343.69;;;8.59;100.00
48364;BME280;34170;54.364;18.582;2024-02-21T02:25:03;100341.06;;;8.69;100.00
48364;BME280;34170;54.364;18.582;2024-02-21T02:27:31;100336.50;;;8.59;100.00
48364;BME280;34170;54.364;18.582;2024-02-21T02:29:59;100328.56;;;8.58;100.00
48364;BME280;34170;54.364;18.582;2024-02-21T02:32:27;100333.88;;;8.69;100.00
48364;BME280;34170;54.364;18.582;2024-02-21T02:34:54;100326.56;;;8.71;100.00
48364;BME280;34170;54.364;18.582;2024-02-21T02:37:22;100327.41;;;8.72;100.00
48364;BME280;34170;54.364;18.582;2024-02-21T02:39:50;100324.38;;;8.65;100.00
48364;BME280;34170;54.364;18.582;2024-02-21T02:42:17;100309.22;;;8.54;100.00
48364;BME280;34170;54.364;18.582;2024-02-21T02:44:45;100316.22;;;8.67;100.00
48364;BME280;34170;54.364;18.582;2024-02-21T02:47:13;100312.28;;;8.71;100.00
48364;BME280;34170;54.364;18.582;2024-02-21T02:49:40;100312.59;;;8.77;100.00
48364;BME280;34170;54.364;18.582;2024-02-21T02:52:08;100307.25;;;8.77;100.00
48364;BME280;34170;54.364;18.582;2024-02-21T02:54:36;100312.59;;;8.77;100.00
48364;BME280;34170;54.364;18.582;2024-02-21T02:57:03;100300.97;;;8.67;100.00
48364;BME280;34170;54.364;18.582;2024-02-21T02:59:32;100290.16;;;8.48;100.00
48364;BME280;34170;54.364;18.582;2024-02-21T03:01:59;100296.09;;;8.51;100.00
48364;BME280;34170;54.364;18.582;2024-02-21T03:04:27;100298.25;;;8.57;100.00
48364;BME280;34170;54.364;18.582;2024-02-21T03:06:55;100296.72;;;8.65;100.00
48364;BME280;34170;54.364;18.582;2024-02-21T03:09:23;100298.97;;;8.59;100.00
48364;BME280;34170;54.364;18.582;2024-02-21T03:11:50;100301.06;;;8.56;100.00
48364;BME280;34170;54.364;18.582;2024-02-21T03:14:18;100297.88;;;8.62;100.00
48364;BME280;34170;54.364;18.582;2024-02-21T03:16:46;100292.56;;;8.82;100.00
48364;BME280;34170;54.364;18.582;2024-02-21T03:19:13;100287.78;;;8.85;100.00
48364;BME280;34170;54.364;18.582;2024-02-21T03:21:41;100294.91;;;8.65;100.00
48364;BME280;34170;54.364;18.582;2024-02-21T03:24:09;100284.16;;;8.65;100.00
48364;BME280;34170;54.364;18.582;2024-02-21T03:26:36;100289.09;;;8.39;100.00
48364;BME280;34170;54.364;18.582;2024-02-21T03:29:04;100284.59;;;8.61;100.00
48364;BME280;34170;54.364;18.582;2024-02-21T03:31:31;100282.28;;;8.77;100.00
48364;BME280;34170;54.364;18.582;2024-02-21T03:33:59;100272.59;;;8.65;100.00
48364;BME280;34170;54.364;18.582;2024-02-21T03:36:27;100270.06;;;8.63;100.00
48364;BME280;34170;54.364;18.582;2024-02-21T03:38:55;100268.88;;;8.56;100.00
48364;BME280;34170;54.364;18.582;2024-02-21T03:41:23;100267.47;;;8.83;100.00
48364;BME280;34170;54.364;18.582;2024-02-21T03:43:50;100269.88;;;8.86;100.00
48364;BME280;34170;54.364;18.582;2024-02-21T03:46:18;100263.97;;;8.92;100.00
48364;BME280;34170;54.364;18.582;2024-02-21T03:48:46;100267.16;;;9.07;100.00
48364;BME280;34170;54.364;18.582;2024-02-21T03:51:13;100265.81;;;8.91;100.00
48364;BME280;34170;54.364;18.582;2024-02-21T03:53:42;100268.72;;;8.78;100.00
48364;BME280;34170;54.364;18.582;2024-02-21T03:56:10;100263.53;;;8.87;100.00
48364;BME280;34170;54.364;18.582;2024-02-21T03:58:37;100266.91;;;8.89;100.00
48364;BME280;34170;54.364;18.582;2024-02-21T04:01:05;100255.25;;;8.69;100.00
48364;BME280;34170;54.364;18.582;2024-02-21T04:03:33;100254.44;;;8.78;100.00
48364;BME280;34170;54.364;18.582;2024-02-21T04:06:00;100249.72;;;8.91;100.00
48364;BME280;34170;54.364;18.582;2024-02-21T04:08:28;100244.88;;;8.85;100.00
48364;BME280;34170;54.364;18.582;2024-02-21T04:10:55;100240.25;;;8.87;100.00
48364;BME280;34170;54.364;18.582;2024-02-21T04:13:23;100241.31;;;9.06;100.00
48364;BME280;34170;54.364;18.582;2024-02-21T04:15:51;100244.69;;;9.08;100.00
48364;BME280;34170;54.364;18.582;2024-02-21T04:18:19;100245.69;;;9.07;100.00
48364;BME280;34170;54.364;18.582;2024-02-21T04:20:46;100237.66;;;9.07;100.00
48364;BME280;34170;54.364;18.582;2024-02-21T04:23:14;100240.16;;;9.08;100.00
48364;BME280;34170;54.364;18.582;2024-02-21T04:25:42;100228.84;;;9.05;100.00
48364;BME280;34170;54.364;18.582;2024-02-21T04:28:10;100224.06;;;9.08;100.00
48364;BME280;34170;54.364;18.582;2024-02-21T04:30:37;100227.50;;;9.10;100.00
48364;BME280;34170;54.364;18.582;2024-02-21T04:33:05;100218.44;;;9.02;100.00
48364;BME280;34170;54.364;18.582;2024-02-21T04:35:33;100212.19;;;8.91;100.00
48364;BME280;34170;54.364;18.582;2024-02-21T04:38:00;100214.59;;;9.04;100.00
48364;BME280;34170;54.364;18.582;2024-02-21T04:40:28;100211.91;;;8.94;100.00
48364;BME280;34170;54.364;18.582;2024-02-21T04:42:57;100204.84;;;8.32;100.00
48364;BME280;34170;54.364;18.582;2024-02-21T04:45:24;100199.66;;;8.71;100.00
48364;BME280;34170;54.364;18.582;2024-02-21T04:47:52;100195.19;;;8.81;100.00
48364;BME280;34170;54.364;18.582;2024-02-21T04:50:19;100197.88;;;8.81;100.00
48364;BME280;34170;54.364;18.582;2024-02-21T04:52:47;100182.50;;;8.83;100.00
48364;BME280;34170;54.364;18.582;2024-02-21T04:55:14;100197.41;;;8.14;100.00
48364;BME280;34170;54.364;18.582;2024-02-21T04:57:42;100177.31;;;8.51;100.00
48364;BME280;34170;54.364;18.582;2024-02-21T05:00:10;100179.34;;;8.58;100.00
48364;BME280;34170;54.364;18.582;2024-02-21T05:02:38;100183.25;;;8.54;100.00
48364;BME280;34170;54.364;18.582;2024-02-21T05:05:05;100176.19;;;8.01;100.00
48364;BME280;34170;54.364;18.582;2024-02-21T05:07:34;100167.13;;;8.45;100.00
48364;BME280;34170;54.364;18.582;2024-02-21T05:10:02;100163.41;;;8.36;100.00
48364;BME280;34170;54.364;18.582;2024-02-21T05:12:30;100164.47;;;8.45;100.00
48364;BME280;34170;54.364;18.582;2024-02-21T05:14:58;100158.16;;;8.55;100.00
48364;BME280;34170;54.364;18.582;2024-02-21T05:17:25;100150.25;;;8.54;100.00
48364;BME280;34170;54.364;18.582;2024-02-21T05:19:53;100144.91;;;8.64;100.00
48364;BME280;34170;54.364;18.582;2024-02-21T05:22:21;100146.63;;;8.74;100.00
48364;BME280;34170;54.364;18.582;2024-02-21T05:24:49;100148.00;;;8.28;100.00
48364;BME280;34170;54.364;18.582;2024-02-21T05:27:17;100135.44;;;8.59;100.00
48364;BME280;34170;54.364;18.582;2024-02-21T05:29:44;100148.03;;;8.69;100.00
48364;BME280;34170;54.364;18.582;2024-02-21T05:32:12;100133.38;;;8.73;100.00
48364;BME280;34170;54.364;18.582;2024-02-21T05:34:40;100132.13;;;8.15;100.00
48364;BME280;34170;54.364;18.582;2024-02-21T05:37:08;100138.84;;;8.40;100.00
48364;BME280;34170;54.364;18.582;2024-02-21T05:39:35;100140.09;;;8.57;100.00
48364;BME280;34170;54.364;18.582;2024-02-21T05:42:03;100136.53;;;8.47;100.00
48364;BME280;34170;54.364;18.582;2024-02-21T05:44:31;100133.34;;;8.63;100.00
48364;BME280;34170;54.364;18.582;2024-02-21T05:46:59;100119.53;;;8.68;100.00
48364;BME280;34170;54.364;18.582;2024-02-21T05:49:26;100124.03;;;8.67;100.00
48364;BME280;34170;54.364;18.582;2024-02-21T05:51:54;100123.19;;;8.67;100.00
48364;BME280;34170;54.364;18.582;2024-02-21T05:54:21;100110.06;;;8.64;100.00
48364;BME280;34170;54.364;18.582;2024-02-21T05:56:49;100110.50;;;8.28;100.00
48364;BME280;34170;54.364;18.582;2024-02-21T05:59:17;100115.28;;;8.25;100.00
48364;BME280;34170;54.364;18.582;2024-02-21T06:01:45;100106.59;;;8.42;100.00
48364;BME280;34170;54.364;18.582;2024-02-21T06:04:12;100096.66;;;8.23;100.00
48364;BME280;34170;54.364;18.582;2024-02-21T06:06:41;100099.91;;;8.57;100.00
48364;BME280;34170;54.364;18.582;2024-02-21T06:09:08;100110.22;;;8.72;100.00
48364;BME280;34170;54.364;18.582;2024-02-21T06:11:36;100097.38;;;8.35;100.00
48364;BME280;34170;54.364;18.582;2024-02-21T06:14:05;100107.50;;;8.21;100.00
48364;BME280;34170;54.364;18.582;2024-02-21T06:16:33;100091.84;;;8.67;100.00
48364;BME280;34170;54.364;18.582;2024-02-21T06:19:01;100087.84;;;8.11;100.00
48364;BME280;34170;54.364;18.582;2024-02-21T06:21:30;100076.03;;;8.54;100.00
48364;BME280;34170;54.364;18.582;2024-02-21T06:23:58;100079.34;;;8.37;100.00
48364;BME280;34170;54.364;18.582;2024-02-21T06:26:25;100072.13;;;8.58;100.00
48364;BME280;34170;54.364;18.582;2024-02-21T06:28:53;100070.19;;;8.80;100.00
48364;BME280;34170;54.364;18.582;2024-02-21T06:31:21;100049.28;;;8.64;100.00
48364;BME280;34170;54.364;18.582;2024-02-21T06:33:48;100057.19;;;8.35;100.00
48364;BME280;34170;54.364;18.582;2024-02-21T06:36:16;100060.84;;;8.84;100.00
48364;BME280;34170;54.364;18.582;2024-02-21T06:38:44;100062.53;;;8.75;100.00
48364;BME280;34170;54.364;18.582;2024-02-21T06:41:16;100076.91;;;8.65;100.00
48364;BME280;34170;54.364;18.582;2024-02-21T06:43:44;100069.03;;;8.92;100.00
48364;BME280;34170;54.364;18.582;2024-02-21T06:46:12;100075.28;;;8.93;100.00
48364;BME280;34170;54.364;18.582;2024-02-21T06:48:49;100074.94;;;8.67;100.00
48364;BME280;34170;54.364;18.582;2024-02-21T06:51:17;100090.50;;;8.92;100.00
48364;BME280;34170;54.364;18.582;2024-02-21T06:53:45;100084.00;;;9.05;100.00
48364;BME280;34170;54.364;18.582;2024-02-21T06:56:13;100088.81;;;9.21;100.00
48364;BME280;34170;54.364;18.582;2024-02-21T06:58:40;100078.94;;;8.82;100.00
48364;BME280;34170;54.364;18.582;2024-02-21T07:01:10;100076.41;;;9.00;100.00
48364;BME280;34170;54.364;18.582;2024-02-21T07:03:38;100076.38;;;9.10;100.00
48364;BME280;34170;54.364;18.582;2024-02-21T07:06:06;100078.25;;;9.00;100.00
48364;BME280;34170;54.364;18.582;2024-02-21T07:08:34;100086.28;;;9.09;100.00
48364;BME280;34170;54.364;18.582;2024-02-21T07:11:01;100071.25;;;8.48;100.00
48364;BME280;34170;54.364;18.582;2024-02-21T07:13:29;100063.09;;;8.89;100.00
48364;BME280;34170;54.364;18.582;2024-02-21T07:15:57;100065.03;;;8.48;100.00
48364;BME280;34170;54.364;18.582;2024-02-21T07:18:24;100059.47;;;9.00;100.00
48364;BME280;34170;54.364;18.582;2024-02-21T07:20:55;100062.41;;;9.26;100.00
48364;BME280;34170;54.364;18.582;2024-02-21T07:23:23;100055.06;;;9.28;100.00
48364;BME280;34170;54.364;18.582;2024-02-21T07:25:50;100057.50;;;9.21;100.00
48364;BME280;34170;54.364;18.582;2024-02-21T07:28:18;100056.63;;;9.11;100.00
48364;BME280;34170;54.364;18.582;2024-02-21T07:30:46;100063.66;;;8.92;100.00
48364;BME280;34170;54.364;18.582;2024-02-21T07:33:13;100061.72;;;9.24;100.00
48364;BME280;34170;54.364;18.582;2024-02-21T07:35:41;100044.47;;;9.26;100.00
48364;BME280;34170;54.364;18.582;2024-02-21T07:38:12;100058.31;;;9.22;100.00
48364;BME280;34170;54.364;18.582;2024-02-21T07:40:40;100051.53;;;8.88;100.00
48364;BME280;34170;54.364;18.582;2024-02-21T07:43:08;100049.47;;;8.42;100.00
48364;BME280;34170;54.364;18.582;2024-02-21T07:45:36;100029.81;;;8.91;100.00
48364;BME280;34170;54.364;18.582;2024-02-21T07:48:04;100032.91;;;8.96;100.00
48364;BME280;34170;54.364;18.582;2024-02-21T07:50:32;100034.06;;;9.04;100.00
48364;BME280;34170;54.364;18.582;2024-02-21T07:52:59;100027.56;;;8.96;100.00
48364;BME280;34170;54.364;18.582;2024-02-21T07:55:27;100026.56;;;8.88;100.00
48364;BME280;34170;54.364;18.582;2024-02-21T07:57:55;100012.88;;;9.01;100.00
48364;BME280;34170;54.364;18.582;2024-02-21T08:00:23;100021.06;;;8.99;100.00
48364;BME280;34170;54.364;18.582;2024-02-21T08:02:51;100004.31;;;8.37;100.00
48364;BME280;34170;54.364;18.582;2024-02-21T08:05:18;100000.75;;;8.77;100.00
48364;BME280;34170;54.364;18.582;2024-02-21T08:07:48;100006.94;;;8.97;100.00
48364;BME280;34170;54.364;18.582;2024-02-21T08:10:16;99990.25;;;8.54;100.00
48364;BME280;34170;54.364;18.582;2024-02-21T08:12:43;100002.56;;;8.86;100.00
48364;BME280;34170;54.364;18.582;2024-02-21T08:15:11;99993.13;;;9.02;100.00
48364;BME280;34170;54.364;18.582;2024-02-21T08:17:39;99985.50;;;9.07;100.00
48364;BME280;34170;54.364;18.582;2024-02-21T08:20:07;99986.91;;;8.72;100.00
48364;BME280;34170;54.364;18.582;2024-02-21T08:22:37;99977.41;;;9.16;100.00
48364;BME280;34170;54.364;18.582;2024-02-21T08:25:06;99984.50;;;8.59;100.00
48364;BME280;34170;54.364;18.582;2024-02-21T08:27:33;99975.59;;;8.97;100.00
48364;BME280;34170;54.364;18.582;2024-02-21T08:30:02;99980.81;;;8.99;100.00
48364;BME280;34170;54.364;18.582;2024-02-21T08:32:29;99973.75;;;9.08;100.00
48364;BME280;34170;54.364;18.582;2024-02-21T08:34:57;99966.25;;;9.21;100.00
48364;BME280;34170;54.364;18.582;2024-02-21T08:37:24;99967.00;;;8.84;100.00
48364;BME280;34170;54.364;18.582;2024-02-21T08:39:52;99957.91;;;9.34;100.00
48364;BME280;34170;54.364;18.582;2024-02-21T08:42:20;99956.97;;;9.06;100.00
48364;BME280;34170;54.364;18.582;2024-02-21T08:44:47;99946.72;;;9.39;100.00
48364;BME280;34170;54.364;18.582;2024-02-21T08:47:15;99951.78;;;9.42;100.00
48364;BME280;34170;54.364;18.582;2024-02-21T08:49:42;99952.63;;;9.52;100.00
48364;BME280;34170;54.364;18.582;2024-02-21T08:52:10;99944.09;;;9.66;100.00
48364;BME280;34170;54.364;18.582;2024-02-21T08:54:38;99942.22;;;9.29;100.00
48364;BME280;34170;54.364;18.582;2024-02-21T08:57:05;99940.78;;;9.35;100.00
48364;BME280;34170;54.364;18.582;2024-02-21T08:59:33;99933.34;;;9.66;100.00
48364;BME280;34170;54.364;18.582;2024-02-21T09:02:01;99933.63;;;9.63;100.00
48364;BME280;34170;54.364;18.582;2024-02-21T09:04:31;99931.25;;;9.13;100.00
48364;BME280;34170;54.364;18.582;2024-02-21T09:06:59;99936.56;;;9.23;100.00
48364;BME280;34170;54.364;18.582;2024-02-21T09:09:27;99944.28;;;9.55;100.00
48364;BME280;34170;54.364;18.582;2024-02-21T09:11:56;99926.47;;;9.44;100.00
48364;BME280;34170;54.364;18.582;2024-02-21T09:14:25;99936.78;;;9.49;100.00
48364;BME280;34170;54.364;18.582;2024-02-21T09:16:52;99944.16;;;9.37;100.00
48364;BME280;34170;54.364;18.582;2024-02-21T09:19:20;99944.03;;;9.39;100.00
48364;BME280;34170;54.364;18.582;2024-02-21T09:21:48;99944.81;;;9.11;100.00
48364;BME280;34170;54.364;18.582;2024-02-21T09:24:17;99944.69;;;8.93;100.00
48364;BME280;34170;54.364;18.582;2024-02-21T09:26:45;99933.94;;;9.13;100.00
48364;BME280;34170;54.364;18.582;2024-02-21T09:29:13;99943.25;;;9.56;100.00
48364;BME280;34170;54.364;18.582;2024-02-21T09:31:43;99939.53;;;9.39;100.00
48364;BME280;34170;54.364;18.582;2024-02-21T09:34:10;99923.84;;;9.34;100.00
48364;BME280;34170;54.364;18.582;2024-02-21T09:36:38;99921.69;;;9.48;100.00
48364;BME280;34170;54.364;18.582;2024-02-21T09:39:08;99924.00;;;9.70;100.00
48364;BME280;34170;54.364;18.582;2024-02-21T09:41:37;99918.31;;;9.73;100.00
48364;BME280;34170;54.364;18.582;2024-02-21T09:44:10;99915.84;;;9.62;100.00
48364;BME280;34170;54.364;18.582;2024-02-21T09:51:40;99910.09;;;10.03;100.00
48364;BME280;34170;54.364;18.582;2024-02-21T09:54:09;99915.88;;;10.08;100.00
48364;BME280;34170;54.364;18.582;2024-02-21T09:56:47;99908.63;;;9.90;100.00
48364;BME280;34170;54.364;18.582;2024-02-21T09:59:16;99899.47;;;10.29;100.00
48364;BME280;34170;54.364;18.582;2024-02-21T10:01:44;99904.97;;;10.09;100.00
48364;BME280;34170;54.364;18.582;2024-02-21T10:04:12;99905.59;;;10.03;100.00
48364;BME280;34170;54.364;18.582;2024-02-21T10:06:41;99902.00;;;9.85;100.00
48364;BME280;34170;54.364;18.582;2024-02-21T10:09:20;99898.19;;;9.87;100.00
48364;BME280;34170;54.364;18.582;2024-02-21T10:11:47;99893.59;;;10.16;100.00
48364;BME280;34170;54.364;18.582;2024-02-21T10:14:16;99884.47;;;10.26;100.00
48364;BME280;34170;54.364;18.582;2024-02-21T10:16:44;99892.31;;;10.20;100.00
48364;BME280;34170;54.364;18.582;2024-02-21T10:19:19;99877.78;;;10.84;100.00
48364;BME280;34170;54.364;18.582;2024-02-21T10:24:31;99870.84;;;10.82;100.00
48364;BME280;34170;54.364;18.582;2024-02-21T10:27:06;99874.06;;;10.59;100.00
48364;BME280;34170;54.364;18.582;2024-02-21T10:29:37;99871.38;;;10.59;100.00
48364;BME280;34170;54.364;18.582;2024-02-21T10:32:12;99867.38;;;10.63;100.00
48364;BME280;34170;54.364;18.582;2024-02-21T10:34:42;99867.31;;;10.37;100.00
48364;BME280;34170;54.364;18.582;2024-02-21T10:37:11;99871.94;;;10.45;100.00
48364;BME280;34170;54.364;18.582;2024-02-21T10:39:41;99870.22;;;10.62;100.00
48364;BME280;34170;54.364;18.582;2024-02-21T10:42:11;99858.66;;;10.87;100.00
48364;BME280;34170;54.364;18.582;2024-02-21T10:44:40;99845.53;;;10.93;100.00
48364;BME280;34170;54.364;18.582;2024-02-21T10:47:10;99852.00;;;10.74;100.00
48364;BME280;34170;54.364;18.582;2024-02-21T10:49:41;99846.00;;;10.62;100.00
48364;BME280;34170;54.364;18.582;2024-02-21T10:52:22;99850.56;;;10.43;100.00
48364;BME280;34170;54.364;18.582;2024-02-21T10:55:13;99840.09;;;10.58;100.00
48364;BME280;34170;54.364;18.582;2024-02-21T10:57:44;99847.03;;;10.25;100.00
48364;BME280;34170;54.364;18.582;2024-02-21T11:00:14;99844.41;;;10.51;100.00
48364;BME280;34170;54.364;18.582;2024-02-21T11:02:46;99848.53;;;10.63;100.00
48364;BME280;34170;54.364;18.582;2024-02-21T11:05:15;99837.22;;;10.52;100.00
48364;BME280;34170;54.364;18.582;2024-02-21T11:07:44;99849.19;;;10.39;100.00
48364;BME280;34170;54.364;18.582;2024-02-21T11:10:24;99826.94;;;10.73;100.00
48364;BME280;34170;54.364;18.582;2024-02-21T11:12:54;99837.75;;;10.81;100.00
48364;BME280;34170;54.364;18.582;2024-02-21T11:15:32;99826.56;;;10.94;100.00
48364;BME280;34170;54.364;18.582;2024-02-21T11:18:00;99831.28;;;11.26;100.00
48364;BME280;34170;54.364;18.582;2024-02-21T11:20:33;99822.66;;;10.88;100.00
48364;BME280;34170;54.364;18.582;2024-02-21T11:23:01;99808.16;;;10.55;100.00
48364;BME280;34170;54.364;18.582;2024-02-21T11:25:29;99816.41;;;10.36;100.00
48364;BME280;34170;54.364;18.582;2024-02-21T11:28:03;99822.84;;;10.43;100.00
48364;BME280;34170;54.364;18.582;2024-02-21T11:30:31;99811.03;;;10.18;100.00
48364;BME280;34170;54.364;18.582;2024-02-21T11:33:02;99824.00;;;10.40;100.00
48364;BME280;34170;54.364;18.582;2024-02-21T11:35:32;99808.09;;;10.47;100.00
48364;BME280;34170;54.364;18.582;2024-02-21T11:38:10;99801.88;;;10.73;100.00
48364;BME280;34170;54.364;18.582;2024-02-21T11:40:46;99798.72;;;10.77;100.00
48364;BME280;34170;54.364;18.582;2024-02-21T11:43:15;99789.66;;;10.52;100.00
48364;BME280;34170;54.364;18.582;2024-02-21T11:45:44;99790.97;;;10.74;100.00
48364;BME280;34170;54.364;18.582;2024-02-21T11:48:12;99792.09;;;10.90;100.00
48364;BME280;34170;54.364;18.582;2024-02-21T11:50:40;99795.13;;;10.95;100.00
48364;BME280;34170;54.364;18.582;2024-02-21T11:53:07;99789.16;;;11.09;100.00
48364;BME280;34170;54.364;18.582;2024-02-21T11:55:37;99776.41;;;11.19;100.00
48364;BME280;34170;54.364;18.582;2024-02-21T11:58:04;99772.09;;;11.35;100.00
48364;BME280;34170;54.364;18.582;2024-02-21T12:00:32;99783.34;;;11.30;100.00
48364;BME280;34170;54.364;18.582;2024-02-21T12:03:00;99786.25;;;11.02;100.00
48364;BME280;34170;54.364;18.582;2024-02-21T12:05:31;99774.56;;;10.85;100.00
48364;BME280;34170;54.364;18.582;2024-02-21T12:07:59;99775.78;;;11.25;100.00
48364;BME280;34170;54.364;18.582;2024-02-21T12:10:27;99770.19;;;11.70;100.00
48364;BME280;34170;54.364;18.582;2024-02-21T12:13:08;99764.09;;;11.59;100.00
48364;BME280;34170;54.364;18.582;2024-02-21T12:15:37;99756.34;;;11.56;100.00
48364;BME280;34170;54.364;18.582;2024-02-21T12:18:05;99749.72;;;10.92;100.00
48364;BME280;34170;54.364;18.582;2024-02-21T12:20:33;99751.22;;;10.94;100.00
48364;BME280;34170;54.364;18.582;2024-02-21T12:23:03;99753.66;;;11.05;100.00
48364;BME280;34170;54.364;18.582;2024-02-21T12:25:31;99754.59;;;10.96;100.00
48364;BME280;34170;54.364;18.582;2024-02-21T12:28:00;99747.66;;;10.85;100.00
48364;BME280;34170;54.364;18.582;2024-02-21T12:30:28;99750.47;;;11.10;100.00
48364;BME280;34170;54.364;18.582;2024-02-21T12:32:57;99741.28;;;10.86;100.00
48364;BME280;34170;54.364;18.582;2024-02-21T12:35:27;99723.72;;;10.74;100.00
48364;BME280;34170;54.364;18.582;2024-02-21T12:37:54;99712.66;;;10.77;100.00
48364;BME280;34170;54.364;18.582;2024-02-21T12:40:22;99724.56;;;11.09;100.00
48364;BME280;34170;54.364;18.582;2024-02-21T12:42:50;99711.19;;;11.34;100.00
48364;BME280;34170;54.364;18.582;2024-02-21T12:45:18;99705.91;;;11.16;100.00
48364;BME280;34170;54.364;18.582;2024-02-21T12:47:46;99704.75;;;11.18;99.43
48364;BME280;34170;54.364;18.582;2024-02-21T12:50:14;99705.75;;;11.09;97.83
48364;BME280;34170;54.364;18.582;2024-02-21T12:52:42;99706.56;;;11.10;95.73
48364;BME280;34170;54.364;18.582;2024-02-21T12:55:11;99697.78;;;10.99;94.18